createdAt,value
2019-05-12T00:01:28.654Z,23.00
2019-05-12T00:05:29.950Z,24.17
2019-05-12T00:09:30.936Z,20.60
2019-05-12T00:13:32.111Z,20.13
2019-05-12T00:17:33.237Z,21.73
2019-05-12T00:21:36.744Z,18.50
2019-05-12T00:25:38.790Z,18.40
2019-05-12T00:29:40.150Z,17.70
2019-05-12T00:33:41.031Z,17.67
2019-05-12T00:37:42.170Z,16.37
2019-05-12T00:41:44.527Z,16.67
2019-05-12T00:45:48.087Z,16.10
2019-05-12T00:49:50.367Z,15.63
2019-05-12T00:53:51.640Z,16.70
2019-05-12T00:57:52.987Z,13.90
2019-05-12T01:01:54.182Z,14.90
2019-05-12T01:05:57.736Z,15.63
2019-05-12T01:10:01.440Z,16.00
2019-05-12T01:14:02.411Z,16.67
2019-05-12T01:18:03.686Z,14.37
2019-05-12T01:22:04.707Z,14.87
2019-05-12T01:26:08.678Z,15.93
2019-05-12T01:30:09.394Z,19.27
2019-05-12T01:34:10.485Z,17.40
2019-05-12T01:38:11.521Z,20.10
2019-05-12T01:42:12.492Z,17.50
2019-05-12T01:46:13.806Z,19.67
2019-05-12T01:50:14.800Z,16.20
2019-05-12T01:54:15.688Z,15.80
2019-05-12T01:58:19.350Z,15.67
2019-05-12T02:02:19.645Z,15.50
2019-05-12T02:06:20.540Z,17.03
2019-05-12T02:10:22.680Z,14.43
2019-05-12T02:14:23.672Z,15.63
2019-05-12T02:18:25.220Z,13.67
2019-05-12T02:22:27.899Z,14.03
2019-05-12T02:26:29.168Z,12.57
2019-05-12T02:30:30.947Z,13.47
2019-05-12T02:34:34.973Z,13.37
2019-05-12T02:38:35.513Z,12.70
2019-05-12T02:42:36.628Z,15.73
2019-05-12T02:46:37.646Z,12.20
2019-05-12T02:50:38.826Z,13.30
2019-05-12T02:54:51.913Z,12.87
2019-05-12T02:58:45.315Z,13.07
2019-05-12T03:02:49.368Z,12.50
2019-05-12T03:06:50.559Z,12.57
2019-05-12T03:10:54.627Z,13.03
2019-05-12T03:14:54.575Z,12.43
2019-05-12T03:18:55.518Z,13.07
2019-05-12T03:22:56.441Z,12.47
2019-05-12T03:26:57.350Z,11.77
2019-05-12T03:30:58.647Z,11.80
2019-05-12T03:34:59.701Z,11.70
2019-05-12T03:39:00.576Z,11.03
2019-05-12T03:43:01.544Z,11.80
2019-05-12T03:47:05.044Z,12.27
2019-05-12T03:51:05.806Z,11.30
2019-05-12T03:55:26.209Z,11.10
2019-05-12T03:59:09.828Z,11.03
2019-05-12T04:03:10.730Z,10.57
2019-05-12T04:07:15.020Z,11.97
2019-05-12T04:11:14.793Z,11.23
2019-05-12T04:15:15.964Z,11.00
2019-05-12T04:19:16.960Z,12.07
2019-05-12T04:23:17.809Z,9.90
2019-05-12T04:27:18.780Z,8.90
2019-05-12T04:31:19.765Z,9.40
2019-05-12T04:35:20.681Z,8.97
2019-05-12T04:39:25.085Z,10.73
2019-05-12T04:43:25.477Z,9.80
2019-05-12T04:47:26.916Z,14.37
2019-05-12T04:51:27.804Z,8.90
2019-05-12T04:55:28.659Z,9.93
2019-05-12T04:59:29.555Z,9.07
2019-05-12T05:03:30.424Z,8.60
2019-05-12T05:07:31.409Z,9.77
2019-05-12T05:11:34.511Z,9.57
2019-05-12T05:15:35.562Z,8.20
2019-05-12T05:19:36.659Z,8.33
2019-05-12T05:23:37.522Z,10.23
2019-05-12T05:27:38.435Z,9.13
2019-05-12T05:31:39.303Z,9.13
2019-05-12T05:35:40.302Z,8.60
2019-05-12T05:39:48.032Z,8.30
2019-05-12T05:43:48.365Z,9.27
2019-05-12T05:47:48.930Z,9.57
2019-05-12T05:51:54.360Z,8.43
2019-05-12T05:55:58.656Z,7.90
2019-05-12T05:59:55.303Z,7.93
2019-05-12T06:03:58.421Z,5.43
2019-05-12T06:07:59.038Z,6.27
2019-05-12T06:12:05.094Z,5.77
2019-05-12T06:16:04.428Z,5.53
2019-05-12T06:20:05.720Z,6.57
2019-05-12T06:24:08.910Z,5.87
2019-05-12T06:28:09.405Z,5.73
2019-05-12T06:32:11.015Z,6.23
2019-05-12T06:36:15.668Z,6.97
2019-05-12T06:40:15.154Z,7.00
2019-05-12T06:44:19.454Z,6.50
2019-05-12T06:48:19.405Z,6.07
2019-05-12T06:52:23.693Z,6.77
2019-05-12T06:56:24.540Z,5.57
2019-05-12T07:00:30.933Z,5.83
2019-05-12T07:04:28.222Z,6.33
2019-05-12T07:08:32.815Z,6.80
2019-05-12T07:12:36.123Z,5.23
2019-05-12T07:16:34.762Z,5.17
2019-05-12T07:20:39.082Z,4.97
2019-05-12T07:24:40.979Z,4.77
2019-05-12T07:28:43.246Z,4.07
2019-05-12T07:32:44.174Z,4.47
2019-05-12T07:36:46.162Z,4.80
2019-05-12T07:40:48.074Z,5.07
2019-05-12T07:44:50.157Z,4.40
2019-05-12T07:48:51.123Z,3.60
2019-05-12T07:52:54.204Z,3.90
2019-05-12T07:56:54.868Z,4.57
2019-05-12T08:01:02.609Z,4.23
2019-05-12T08:04:58.732Z,3.57
2019-05-12T08:08:59.609Z,5.07
2019-05-12T08:13:00.969Z,5.10
2019-05-12T08:17:10.485Z,3.27
2019-05-12T08:21:04.668Z,3.90
2019-05-12T08:25:06.056Z,4.87
2019-05-12T08:29:10.388Z,3.60
2019-05-12T08:33:10.272Z,4.17
2019-05-12T08:37:13.816Z,4.30
2019-05-12T08:41:14.671Z,4.40
2019-05-12T08:45:25.732Z,3.87
2019-05-12T08:49:18.519Z,5.17
2019-05-12T08:53:20.816Z,3.53
2019-05-12T08:57:24.131Z,5.43
2019-05-12T09:01:26.560Z,3.90
2019-05-12T09:05:33.574Z,3.97
2019-05-12T09:09:33.613Z,4.20
2019-05-12T09:13:34.452Z,3.07
2019-05-12T09:17:37.470Z,3.17
2019-05-12T09:21:38.963Z,3.70
2019-05-12T09:25:45.098Z,3.33
2019-05-12T09:29:43.673Z,3.10
2019-05-12T09:33:44.708Z,2.93
2019-05-12T09:37:45.686Z,3.03
2019-05-12T09:41:52.105Z,2.90
2019-05-12T09:45:54.015Z,3.40
2019-05-12T09:49:53.564Z,3.17
2019-05-12T09:53:55.480Z,3.33
2019-05-12T09:57:56.578Z,2.73
2019-05-12T10:01:57.456Z,3.33
2019-05-12T10:05:58.445Z,2.60
2019-05-12T10:09:59.897Z,2.00
2019-05-12T10:14:06.502Z,2.37
2019-05-12T10:18:11.038Z,2.23
2019-05-12T10:22:07.119Z,1.90
2019-05-12T10:26:11.589Z,2.13
2019-05-12T10:30:17.043Z,2.03
2019-05-12T10:34:18.347Z,2.37
2019-05-12T10:38:19.258Z,2.70
2019-05-12T10:42:20.158Z,1.93
2019-05-12T10:46:24.469Z,2.37
2019-05-12T10:50:24.021Z,1.90
2019-05-12T10:54:25.005Z,1.83
2019-05-12T10:58:26.406Z,1.67
2019-05-12T11:02:30.481Z,2.07
2019-05-12T11:06:30.150Z,2.00
2019-05-12T11:10:31.242Z,2.40
2019-05-12T11:14:34.205Z,1.60
2019-05-12T11:18:35.389Z,1.90
2019-05-12T11:22:36.332Z,1.60
2019-05-12T11:26:37.240Z,2.03
2019-05-12T11:30:38.331Z,3.17
2019-05-12T11:34:39.241Z,1.40
2019-05-12T11:38:44.267Z,1.70
2019-05-12T11:42:46.824Z,1.63
2019-05-12T11:46:47.627Z,1.37
2019-05-12T11:50:51.313Z,1.30
2019-05-12T11:54:53.760Z,1.47
2019-05-12T11:58:54.809Z,1.40
2019-05-12T12:02:55.648Z,1.40
2019-05-12T12:06:56.652Z,1.00
2019-05-12T12:10:57.609Z,1.53
2019-05-12T12:14:58.577Z,1.20
2019-05-12T12:19:02.500Z,1.40
2019-05-12T12:23:06.522Z,1.17
2019-05-12T12:27:05.524Z,1.07
2019-05-12T12:31:07.861Z,1.70
2019-05-12T12:35:12.977Z,1.40
2019-05-12T12:39:13.153Z,1.07
2019-05-12T12:43:14.211Z,1.30
2019-05-12T12:47:15.099Z,1.03
2019-05-12T12:51:17.529Z,1.20
2019-05-12T12:55:18.860Z,1.40
2019-05-12T12:59:19.845Z,1.33
2019-05-12T13:03:27.777Z,1.10
2019-05-12T13:07:24.122Z,1.10
2019-05-12T13:11:33.061Z,1.10
2019-05-12T13:15:28.049Z,1.27
2019-05-12T13:19:29.041Z,1.10
2019-05-12T13:23:37.860Z,1.03
2019-05-12T13:27:36.685Z,0.93
2019-05-12T13:31:36.219Z,0.90
2019-05-12T13:35:37.085Z,1.93
2019-05-12T13:39:38.073Z,1.47
2019-05-12T13:43:38.992Z,1.27
2019-05-12T13:47:40.241Z,1.73
2019-05-12T13:51:43.186Z,1.10
2019-05-12T13:55:45.482Z,1.00
2019-05-12T13:59:47.032Z,1.23
2019-05-12T14:03:50.612Z,1.07
2019-05-12T14:07:55.663Z,1.40
2019-05-12T14:11:53.941Z,1.03
2019-05-12T14:15:55.101Z,0.83
2019-05-12T14:19:55.976Z,1.47
2019-05-12T14:23:56.868Z,0.83
2019-05-12T14:27:59.370Z,1.03
2019-05-12T14:32:03.100Z,1.13
2019-05-12T14:36:04.058Z,0.83
2019-05-12T14:40:05.671Z,1.97
2019-05-12T14:44:06.745Z,1.03
2019-05-12T14:48:09.432Z,1.27
2019-05-12T14:52:10.540Z,1.23
2019-05-12T14:56:13.904Z,1.13
2019-05-12T15:00:21.202Z,1.00
2019-05-12T15:04:19.409Z,1.03
2019-05-12T15:08:21.370Z,1.40
2019-05-12T15:12:24.289Z,1.63
2019-05-12T15:16:25.334Z,1.50
2019-05-12T15:20:26.279Z,1.20
2019-05-12T15:24:27.314Z,1.40
2019-05-12T15:28:28.212Z,1.10
2019-05-12T15:32:29.174Z,1.10
2019-05-12T15:36:31.004Z,1.33
2019-05-12T15:40:32.008Z,1.20
2019-05-12T15:44:36.260Z,1.50
2019-05-12T15:48:35.784Z,1.67
2019-05-12T15:52:42.179Z,1.60
2019-05-12T15:56:40.513Z,0.77
2019-05-12T16:00:43.345Z,1.50
2019-05-12T16:04:48.229Z,1.27
2019-05-12T16:08:47.114Z,1.57
2019-05-12T16:12:48.129Z,1.50
2019-05-12T16:16:49.147Z,1.67
2019-05-12T16:20:50.075Z,1.47
2019-05-12T16:24:53.114Z,1.43
2019-05-12T16:29:02.360Z,1.47
2019-05-12T16:32:56.689Z,1.73
2019-05-12T16:36:57.687Z,1.20
2019-05-12T16:40:58.575Z,1.07
2019-05-12T16:45:06.109Z,1.70
2019-05-12T16:49:03.349Z,1.40
2019-05-12T16:53:04.464Z,1.60
2019-05-12T16:57:10.377Z,1.60
2019-05-12T17:01:08.304Z,1.07
2019-05-12T17:05:18.158Z,1.30
2019-05-12T17:09:13.495Z,0.93
2019-05-12T17:13:16.062Z,1.73
2019-05-12T17:17:21.017Z,1.37
2019-05-12T17:21:20.213Z,1.60
2019-05-12T17:25:21.131Z,1.10
2019-05-12T17:29:24.219Z,1.70
2019-05-12T17:33:27.516Z,1.70
2019-05-12T17:37:31.475Z,1.20
2019-05-12T17:41:31.601Z,1.20
2019-05-12T17:45:33.530Z,1.47
2019-05-12T17:49:39.025Z,1.60
2019-05-12T17:53:40.365Z,4.13
2019-05-12T17:57:43.838Z,1.50
2019-05-12T18:01:44.686Z,1.53
2019-05-12T18:05:47.990Z,1.20
2019-05-12T18:09:50.435Z,1.73
2019-05-12T18:14:01.691Z,1.70
2019-05-12T18:17:54.554Z,1.90
2019-05-12T18:22:02.952Z,1.57
2019-05-12T18:26:03.073Z,1.23
2019-05-12T18:30:04.475Z,1.40
2019-05-12T18:34:05.590Z,1.10
2019-05-12T18:38:08.072Z,1.80
2019-05-12T18:42:09.598Z,1.40
2019-05-12T18:46:10.616Z,1.47
2019-05-12T18:50:14.095Z,1.83
2019-05-12T18:54:15.169Z,2.03
2019-05-12T18:58:21.644Z,2.00
2019-05-12T19:02:23.391Z,1.70
2019-05-12T19:06:23.357Z,1.60
2019-05-12T19:10:24.665Z,1.67
2019-05-12T19:14:34.963Z,2.03
2019-05-12T19:18:32.506Z,2.07
2019-05-12T19:22:33.848Z,1.90
2019-05-12T19:26:38.422Z,1.90
2019-05-12T19:30:39.286Z,1.50
2019-05-12T19:34:40.204Z,2.50
2019-05-12T19:38:41.183Z,1.90
2019-05-12T19:42:42.908Z,2.63
2019-05-12T19:46:46.122Z,2.50
2019-05-12T19:50:52.864Z,2.30
2019-05-12T19:54:49.697Z,1.80
2019-05-12T19:58:50.637Z,5.47
2019-05-12T20:02:53.311Z,5.13
2019-05-12T20:06:54.612Z,4.53
2019-05-12T20:10:55.556Z,6.63
2019-05-12T20:14:57.422Z,6.80
2019-05-12T20:18:59.292Z,4.63
2019-05-12T20:23:00.171Z,4.67
2019-05-12T20:27:01.204Z,4.43
2019-05-12T20:31:05.830Z,5.20
2019-05-12T20:35:05.886Z,4.67
2019-05-12T20:39:09.846Z,5.53
2019-05-12T20:43:12.257Z,4.40
2019-05-12T20:47:13.972Z,12.10
2019-05-12T20:51:20.000Z,13.00
2019-05-12T20:55:18.056Z,18.50
2019-05-12T20:59:22.299Z,10.77
2019-05-12T21:03:24.123Z,5.23
2019-05-12T21:07:26.920Z,4.37
2019-05-12T21:11:35.548Z,6.13
2019-05-12T21:15:42.370Z,7.50
2019-05-12T21:19:41.496Z,4.63
2019-05-12T21:23:45.605Z,4.50
2019-05-12T21:27:47.803Z,4.17
2019-05-12T21:31:48.136Z,4.63
2019-05-12T21:35:49.007Z,4.53
2019-05-12T21:39:51.087Z,4.67
2019-05-12T21:43:54.295Z,10.00
2019-05-12T21:47:56.805Z,16.57
2019-05-12T21:52:02.976Z,16.73
2019-05-12T21:56:03.971Z,13.30
2019-05-12T22:00:10.768Z,11.57
2019-05-12T22:04:11.504Z,13.57
2019-05-12T22:08:20.749Z,14.00
2019-05-12T22:12:17.276Z,11.77
2019-05-12T22:16:18.159Z,14.60
2019-05-12T22:20:19.907Z,23.37
2019-05-12T22:24:27.502Z,12.93
2019-05-12T22:28:24.048Z,7.50
2019-05-12T22:32:29.409Z,5.63
2019-05-12T22:36:30.110Z,5.80
2019-05-12T22:40:30.842Z,6.43
2019-05-12T22:44:31.761Z,6.77
2019-05-12T22:48:37.240Z,6.50
2019-05-12T22:52:39.073Z,5.83
2019-05-12T22:56:38.250Z,5.53
2019-05-12T23:00:39.115Z,7.47
2019-05-12T23:04:40.507Z,6.27
2019-05-12T23:08:47.119Z,6.80
2019-05-12T23:12:44.741Z,5.70
2019-05-12T23:16:45.873Z,6.20
2019-05-12T23:20:46.726Z,5.67
2019-05-12T23:24:47.633Z,4.30
2019-05-12T23:28:50.357Z,5.60
2019-05-12T23:32:52.935Z,5.03
2019-05-12T23:36:56.860Z,4.73
2019-05-12T23:40:56.825Z,4.27
2019-05-12T23:44:57.775Z,5.00
2019-05-12T23:48:58.664Z,4.77
2019-05-12T23:52:59.636Z,5.53
2019-05-12T23:57:00.729Z,5.77
